sensor_id;sensor_type;location;lat;lon;timestamp;pressure;altitude;pressure_sealevel;temperature;humidity
61205;BME280;47068;55.780;37.520;2023-03-16T05:14:44;99485.13;;;5.37;68.47
61205;BME280;47068;55.780;37.520;2023-03-16T05:17:09;99518.38;;;5.69;68.51
61205;BME280;47068;55.780;37.520;2023-03-16T05:19:39;99522.69;;;5.79;68.15
61205;BME280;47068;55.780;37.520;2023-03-16T05:22:04;99510.91;;;5.74;68.36
61205;BME280;47068;55.780;37.520;2023-03-16T05:24:31;99533.00;;;5.92;68.08
61205;BME280;47068;55.780;37.520;2023-03-16T05:26:56;99515.91;;;5.86;67.76
61205;BME280;47068;55.780;37.520;2023-03-16T05:29:22;99523.44;;;5.91;68.10
61205;BME280;47068;55.780;37.520;2023-03-16T05:31:49;99524.78;;;5.85;67.95
61205;BME280;47068;55.780;37.520;2023-03-16T05:34:15;99532.28;;;5.80;67.91
61205;BME280;47068;55.780;37.520;2023-03-16T05:36:40;99505.84;;;5.61;67.73
61205;BME280;47068;55.780;37.520;2023-03-16T05:39:06;99533.69;;;5.84;68.04
61205;BME280;47068;55.780;37.520;2023-03-16T05:41:32;99525.63;;;5.86;68.30
61205;BME280;47068;55.780;37.520;2023-03-16T05:43:58;99520.78;;;5.91;67.90
61205;BME280;47068;55.780;37.520;2023-03-16T05:46:24;99480.31;;;5.71;67.30
61205;BME280;47068;55.780;37.520;2023-03-16T05:48:49;99508.56;;;6.00;67.12
61205;BME280;47068;55.780;37.520;2023-03-16T05:51:14;99522.84;;;6.16;67.52
61205;BME280;47068;55.780;37.520;2023-03-16T05:53:41;99500.63;;;6.09;67.07
61205;BME280;47068;55.780;37.520;2023-03-16T05:56:06;99456.28;;;5.84;67.15
61205;BME280;47068;55.780;37.520;2023-03-16T05:58:32;99541.38;;;6.07;67.58
61205;BME280;47068;55.780;37.520;2023-03-16T06:00:59;99506.31;;;5.95;67.37
61205;BME280;47068;55.780;37.520;2023-03-16T06:03:27;99531.63;;;6.17;67.12
61205;BME280;47068;55.780;37.520;2023-03-16T06:05:53;99542.75;;;6.20;67.51
61205;BME280;47068;55.780;37.520;2023-03-16T06:08:18;99526.19;;;6.18;67.13
61205;BME280;47068;55.780;37.520;2023-03-16T06:10:45;99241.34;;;4.34;67.15
61205;BME280;47068;55.780;37.520;2023-03-16T06:13:11;99534.25;;;6.26;67.84
61205;BME280;47068;55.780;37.520;2023-03-16T06:15:37;99536.78;;;6.28;67.43
61205;BME280;47068;55.780;37.520;2023-03-16T06:18:02;99543.72;;;6.29;67.31
61205;BME280;47068;55.780;37.520;2023-03-16T06:20:28;99545.66;;;6.27;67.38
61205;BME280;47068;55.780;37.520;2023-03-16T06:22:53;99509.78;;;5.96;67.93
61205;BME280;47068;55.780;37.520;2023-03-16T06:25:19;99545.38;;;6.11;67.67
61205;BME280;47068;55.780;37.520;2023-03-16T06:27:44;99557.31;;;5.96;68.42
61205;BME280;47068;55.780;37.520;2023-03-16T06:30:12;99563.59;;;5.95;68.79
61205;BME280;47068;55.780;37.520;2023-03-16T06:32:38;99563.41;;;5.86;68.83
61205;BME280;47068;55.780;37.520;2023-03-16T06:35:07;99538.81;;;5.67;69.25
61205;BME280;47068;55.780;37.520;2023-03-16T06:37:34;99563.41;;;5.86;69.13
61205;BME280;47068;55.780;37.520;2023-03-16T06:39:59;99567.06;;;5.95;69.18
61205;BME280;47068;55.780;37.520;2023-03-16T06:42:24;99561.66;;;6.06;68.52
61205;BME280;47068;55.780;37.520;2023-03-16T06:44:50;99571.78;;;6.11;68.68
61205;BME280;47068;55.780;37.520;2023-03-16T06:47:17;99555.38;;;6.17;68.61
61205;BME280;47068;55.780;37.520;2023-03-16T06:49:42;99561.13;;;6.22;67.97
61205;BME280;47068;55.780;37.520;2023-03-16T06:52:08;99555.09;;;6.29;67.96
61205;BME280;47068;55.780;37.520;2023-03-16T06:54:35;99565.69;;;6.39;68.08
61205;BME280;47068;55.780;37.520;2023-03-16T06:57:02;99561.66;;;6.35;67.25
61205;BME280;47068;55.780;37.520;2023-03-16T06:59:28;99555.09;;;6.29;67.51
61205;BME280;47068;55.780;37.520;2023-03-16T07:01:54;99557.88;;;6.38;67.50
61205;BME280;47068;55.780;37.520;2023-03-16T07:04:20;99566.50;;;6.49;67.75
61205;BME280;47068;55.780;37.520;2023-03-16T07:06:45;99574.53;;;6.57;66.90
61205;BME280;47068;55.780;37.520;2023-03-16T07:09:11;99533.13;;;6.48;67.38
61205;BME280;47068;55.780;37.520;2023-03-16T07:11:37;99521.97;;;6.54;66.60
61205;BME280;47068;55.780;37.520;2023-03-16T07:14:02;99534.91;;;6.57;66.39
61205;BME280;47068;55.780;37.520;2023-03-16T07:16:28;99559.19;;;6.80;66.34
61205;BME280;47068;55.780;37.520;2023-03-16T07:18:54;99569.19;;;6.86;66.39
61205;BME280;47068;55.780;37.520;2023-03-16T07:21:19;99566.69;;;6.85;66.27
61205;BME280;47068;55.780;37.520;2023-03-16T07:23:46;99557.41;;;6.81;66.89
61205;BME280;47068;55.780;37.520;2023-03-16T07:26:11;99497.09;;;6.47;66.24
61205;BME280;47068;55.780;37.520;2023-03-16T07:28:38;99561.72;;;6.82;66.27
61205;BME280;47068;55.780;37.520;2023-03-16T07:31:06;99560.88;;;6.81;65.72
61205;BME280;47068;55.780;37.520;2023-03-16T07:33:32;99556.03;;;6.77;66.54
61205;BME280;47068;55.780;37.520;2023-03-16T07:35:59;99558.38;;;6.80;65.85
61205;BME280;47068;55.780;37.520;2023-03-16T07:38:29;99519.75;;;6.59;66.24
61205;BME280;47068;55.780;37.520;2023-03-16T07:40:54;99552.50;;;6.86;65.94
61205;BME280;47068;55.780;37.520;2023-03-16T07:43:19;99421.66;;;6.16;66.14
61205;BME280;47068;55.780;37.520;2023-03-16T07:45:49;99548.03;;;6.96;65.89
61205;BME280;47068;55.780;37.520;2023-03-16T07:48:16;99485.63;;;6.66;65.38
61205;BME280;47068;55.780;37.520;2023-03-16T07:50:42;99532.44;;;6.93;65.90
61205;BME280;47068;55.780;37.520;2023-03-16T07:53:08;99531.56;;;7.02;66.02
61205;BME280;47068;55.780;37.520;2023-03-16T07:55:34;99532.38;;;7.12;65.47
61205;BME280;47068;55.780;37.520;2023-03-16T07:58:00;99538.66;;;7.11;65.46
61205;BME280;47068;55.780;37.520;2023-03-16T08:00:26;99531.38;;;7.13;65.50
61205;BME280;47068;55.780;37.520;2023-03-16T08:02:51;99518.84;;;7.15;65.56
61205;BME280;47068;55.780;37.520;2023-03-16T08:05:18;99283.06;;;5.73;65.13
61205;BME280;47068;55.780;37.520;2023-03-16T08:07:43;99520.91;;;7.21;65.46
61205;BME280;47068;55.780;37.520;2023-03-16T08:10:10;99542.28;;;7.37;65.08
61205;BME280;47068;55.780;37.520;2023-03-16T08:12:35;99546.34;;;7.32;64.62
61205;BME280;47068;55.780;37.520;2023-03-16T08:15:01;99553.16;;;7.34;65.50
61205;BME280;47068;55.780;37.520;2023-03-16T08:17:27;99569.34;;;7.31;65.05
61205;BME280;47068;55.780;37.520;2023-03-16T08:19:52;99559.16;;;7.27;64.98
61205;BME280;47068;55.780;37.520;2023-03-16T08:22:17;99553.94;;;7.17;65.62
61205;BME280;47068;55.780;37.520;2023-03-16T08:24:43;99555.50;;;7.10;65.22
61205;BME280;47068;55.780;37.520;2023-03-16T08:27:09;99557.16;;;7.11;65.35
61205;BME280;47068;55.780;37.520;2023-03-16T08:29:35;99563.00;;;7.15;65.56
61205;BME280;47068;55.780;37.520;2023-03-16T08:32:02;99518.53;;;6.91;65.55
61205;BME280;47068;55.780;37.520;2023-03-16T08:34:27;99492.66;;;6.85;65.11
61205;BME280;47068;55.780;37.520;2023-03-16T08:36:53;99551.19;;;7.09;65.15
61205;BME280;47068;55.780;37.520;2023-03-16T08:39:19;99553.56;;;7.02;65.22
61205;BME280;47068;55.780;37.520;2023-03-16T08:41:44;99549.16;;;6.93;65.75
61205;BME280;47068;55.780;37.520;2023-03-16T08:44:11;99408.34;;;6.08;65.78
61205;BME280;47068;55.780;37.520;2023-03-16T08:46:37;99496.78;;;6.50;65.78
61205;BME280;47068;55.780;37.520;2023-03-16T08:49:04;99552.34;;;6.97;65.88
61205;BME280;47068;55.780;37.520;2023-03-16T08:51:31;99554.09;;;7.06;65.75
61205;BME280;47068;55.780;37.520;2023-03-16T08:53:57;99504.81;;;6.78;65.84
61205;BME280;47068;55.780;37.520;2023-03-16T08:56:24;99563.81;;;7.15;65.30
61205;BME280;47068;55.780;37.520;2023-03-16T08:58:50;99554.66;;;7.09;66.06
61205;BME280;47068;55.780;37.520;2023-03-16T09:01:17;99563.56;;;7.08;66.17
61205;BME280;47068;55.780;37.520;2023-03-16T09:03:43;99565.81;;;7.03;66.17
61205;BME280;47068;55.780;37.520;2023-03-16T09:06:14;99561.97;;;6.98;66.22
61205;BME280;47068;55.780;37.520;2023-03-16T09:08:40;99559.31;;;6.98;66.57
61205;BME280;47068;55.780;37.520;2023-03-16T09:11:11;99560.81;;;7.00;66.23
61205;BME280;47068;55.780;37.520;2023-03-16T09:13:40;99561.78;;;6.99;66.73
61205;BME280;47068;55.780;37.520;2023-03-16T09:16:07;99564.69;;;7.06;66.00
61205;BME280;47068;55.780;37.520;2023-03-16T09:18:34;99566.06;;;7.10;65.85
61205;BME280;47068;55.780;37.520;2023-03-16T09:21:05;99556.91;;;7.04;65.95
61205;BME280;47068;55.780;37.520;2023-03-16T09:23:31;99555.34;;;7.11;65.78
61205;BME280;47068;55.780;37.520;2023-03-16T09:26:00;99554.94;;;7.06;66.17
61205;BME280;47068;55.780;37.520;2023-03-16T09:28:28;99501.63;;;6.74;66.33
61205;BME280;47068;55.780;37.520;2023-03-16T09:30:54;99522.75;;;6.84;67.15
61205;BME280;47068;55.780;37.520;2023-03-16T09:33:22;99556.34;;;7.10;66.86
61205;BME280;47068;55.780;37.520;2023-03-16T09:35:48;99531.56;;;7.02;67.08
61205;BME280;47068;55.780;37.520;2023-03-16T09:38:14;99566.88;;;7.20;66.90
61205;BME280;47068;55.780;37.520;2023-03-16T09:40:41;99504.88;;;6.95;66.99
61205;BME280;47068;55.780;37.520;2023-03-16T09:45:47;99563.34;;;7.29;65.92
61205;BME280;47068;55.780;37.520;2023-03-16T09:48:17;99553.84;;;7.36;66.06
61205;BME280;47068;55.780;37.520;2023-03-16T09:50:46;99558.44;;;7.34;65.86
61205;BME280;47068;55.780;37.520;2023-03-16T09:53:31;99548.16;;;7.31;66.39
61205;BME280;47068;55.780;37.520;2023-03-16T09:56:06;99552.41;;;7.42;65.23
61205;BME280;47068;55.780;37.520;2023-03-16T09:58:34;99552.56;;;7.40;66.12
61205;BME280;47068;55.780;37.520;2023-03-16T10:09:48;99560.59;;;7.48;65.29
61205;BME280;47068;55.780;37.520;2023-03-16T10:12:17;99548.69;;;7.35;65.60
61205;BME280;47068;55.780;37.520;2023-03-16T10:15:13;99567.72;;;7.48;65.71
61205;BME280;47068;55.780;37.520;2023-03-16T10:20:14;99528.16;;;7.19;65.89
61205;BME280;47068;55.780;37.520;2023-03-16T10:22:44;99529.88;;;7.10;66.63
61205;BME280;47068;55.780;37.520;2023-03-16T10:25:21;99557.34;;;7.27;67.11
61205;BME280;47068;55.780;37.520;2023-03-16T10:27:48;99528.34;;;7.08;68.16
61205;BME280;47068;55.780;37.520;2023-03-16T10:30:28;99561.69;;;7.28;67.72
61205;BME280;47068;55.780;37.520;2023-03-16T10:33:01;99510.16;;;6.95;67.71
61205;BME280;47068;55.780;37.520;2023-03-16T10:38:33;99559.84;;;7.38;67.94
61205;BME280;47068;55.780;37.520;2023-03-16T10:46:16;99567.31;;;7.43;67.12
61205;BME280;47068;55.780;37.520;2023-03-16T10:48:54;99574.44;;;7.42;67.77
61205;BME280;47068;55.780;37.520;2023-03-16T10:51:26;99570.41;;;7.38;68.10
61205;BME280;47068;55.780;37.520;2023-03-16T10:53:52;99538.34;;;7.14;68.79
61205;BME280;47068;55.780;37.520;2023-03-16T10:56:21;99562.31;;;7.40;68.56
61205;BME280;47068;55.780;37.520;2023-03-16T10:58:47;99558.16;;;7.37;69.09
61205;BME280;47068;55.780;37.520;2023-03-16T11:01:23;99567.03;;;7.46;68.70
61205;BME280;47068;55.780;37.520;2023-03-16T11:03:53;99569.25;;;7.50;68.02
61205;BME280;47068;55.780;37.520;2023-03-16T11:06:28;99570.34;;;7.48;67.52
61205;BME280;47068;55.780;37.520;2023-03-16T11:09:17;99567.88;;;7.46;67.25
61205;BME280;47068;55.780;37.520;2023-03-16T11:11:46;99570.81;;;7.43;68.02
61205;BME280;47068;55.780;37.520;2023-03-16T11:14:13;99573.59;;;7.42;68.10
61205;BME280;47068;55.780;37.520;2023-03-16T11:16:50;99521.53;;;7.05;67.49
61205;BME280;47068;55.780;37.520;2023-03-16T11:21:55;99564.03;;;7.31;68.30
61205;BME280;47068;55.780;37.520;2023-03-16T11:24:26;99572.66;;;7.33;67.74
61205;BME280;47068;55.780;37.520;2023-03-16T11:26:56;99577.81;;;7.35;68.36
61205;BME280;47068;55.780;37.520;2023-03-16T11:32:26;99564.56;;;7.35;68.43
61205;BME280;47068;55.780;37.520;2023-03-16T11:34:53;99569.72;;;7.36;67.79
61205;BME280;47068;55.780;37.520;2023-03-16T11:40:03;99577.94;;;7.33;69.23
61205;BME280;47068;55.780;37.520;2023-03-16T11:45:18;99589.31;;;7.16;69.42
61205;BME280;47068;55.780;37.520;2023-03-16T11:48:02;99591.94;;;7.16;68.88
61205;BME280;47068;55.780;37.520;2023-03-16T11:56:02;99602.34;;;7.27;69.56
61205;BME280;47068;55.780;37.520;2023-03-16T12:01:46;99572.41;;;6.90;70.12
61205;BME280;47068;55.780;37.520;2023-03-16T12:04:37;99601.44;;;7.09;70.22
61205;BME280;47068;55.780;37.520;2023-03-16T12:07:53;99601.88;;;7.04;70.11
61205;BME280;47068;55.780;37.520;2023-03-16T12:10:30;99591.75;;;6.90;70.34
61205;BME280;47068;55.780;37.520;2023-03-16T12:15:47;99604.41;;;6.87;70.72
61205;BME280;47068;55.780;37.520;2023-03-16T12:18:21;99605.69;;;6.83;70.30
61205;BME280;47068;55.780;37.520;2023-03-16T12:23:19;99609.31;;;6.91;70.67
61205;BME280;47068;55.780;37.520;2023-03-16T12:25:48;99600.78;;;6.97;70.55
61205;BME280;47068;55.780;37.520;2023-03-16T12:28:26;99609.84;;;6.95;69.60
61205;BME280;47068;55.780;37.520;2023-03-16T12:31:18;99615.13;;;6.95;70.30
61205;BME280;47068;55.780;37.520;2023-03-16T12:44:48;99623.34;;;6.92;69.80
61205;BME280;47068;55.780;37.520;2023-03-16T12:47:28;99626.41;;;6.97;69.19
61205;BME280;47068;55.780;37.520;2023-03-16T12:50:08;99636.56;;;6.92;69.79
61205;BME280;47068;55.780;37.520;2023-03-16T12:52:47;99617.09;;;6.73;69.67
61205;BME280;47068;55.780;37.520;2023-03-16T12:55:16;99638.66;;;6.79;70.41
61205;BME280;47068;55.780;37.520;2023-03-16T12:57:45;99629.63;;;6.71;70.05
61205;BME280;47068;55.780;37.520;2023-03-16T13:00:13;99600.88;;;6.49;70.38
61205;BME280;47068;55.780;37.520;2023-03-16T13:02:48;99637.03;;;6.78;71.01
61205;BME280;47068;55.780;37.520;2023-03-16T13:05:28;99625.75;;;6.66;70.95
61205;BME280;47068;55.780;37.520;2023-03-16T13:08:08;99648.56;;;6.77;70.82
61205;BME280;47068;55.780;37.520;2023-03-16T13:10:38;99656.63;;;6.75;71.12
61205;BME280;47068;55.780;37.520;2023-03-16T13:13:15;99647.72;;;6.66;71.76
61205;BME280;47068;55.780;37.520;2023-03-16T13:15:43;99646.75;;;6.67;72.02
61205;BME280;47068;55.780;37.520;2023-03-16T13:20:59;99637.31;;;6.55;72.21
61205;BME280;47068;55.780;37.520;2023-03-16T13:23:46;99637.19;;;6.57;72.06
61205;BME280;47068;55.780;37.520;2023-03-16T13:26:22;99536.75;;;5.89;71.70
61205;BME280;47068;55.780;37.520;2023-03-16T13:28:53;99630.22;;;6.56;71.95
61205;BME280;47068;55.780;37.520;2023-03-16T13:34:00;99637.97;;;6.57;72.72
61205;BME280;47068;55.780;37.520;2023-03-16T13:36:28;99620.47;;;6.47;72.90
61205;BME280;47068;55.780;37.520;2023-03-16T13:41:22;99637.97;;;6.57;72.72
61205;BME280;47068;55.780;37.520;2023-03-16T13:43:48;99630.34;;;6.54;73.07
61205;BME280;47068;55.780;37.520;2023-03-16T13:46:16;99565.28;;;6.15;73.34
61205;BME280;47068;55.780;37.520;2023-03-16T13:48:42;99630.34;;;6.54;73.39
61205;BME280;47068;55.780;37.520;2023-03-16T13:51:16;99649.97;;;6.61;73.15
61205;BME280;47068;55.780;37.520;2023-03-16T13:53:43;99630.63;;;6.61;73.00
61205;BME280;47068;55.780;37.520;2023-03-16T13:56:14;99575.69;;;6.26;72.52
61205;BME280;47068;55.780;37.520;2023-03-16T13:58:43;99639.25;;;6.63;72.38
61205;BME280;47068;55.780;37.520;2023-03-16T14:01:24;99644.69;;;6.61;73.40
61205;BME280;47068;55.780;37.520;2023-03-16T14:03:51;99603.78;;;6.37;72.83
61205;BME280;47068;55.780;37.520;2023-03-16T14:06:23;99638.81;;;6.58;72.50
61205;BME280;47068;55.780;37.520;2023-03-16T14:08:53;99642.03;;;6.61;72.47
61205;BME280;47068;55.780;37.520;2023-03-16T14:11:20;99649.25;;;6.59;72.88
61205;BME280;47068;55.780;37.520;2023-03-16T14:13:51;99643.16;;;6.49;72.37
61205;BME280;47068;55.780;37.520;2023-03-16T14:16:20;99641.63;;;6.47;73.01
61205;BME280;47068;55.780;37.520;2023-03-16T14:18:52;99614.22;;;6.28;73.35
61205;BME280;47068;55.780;37.520;2023-03-16T14:21:22;99638.81;;;6.39;72.93
61205;BME280;47068;55.780;37.520;2023-03-16T14:23:53;99641.75;;;6.45;72.75
61205;BME280;47068;55.780;37.520;2023-03-16T14:26:20;99613.53;;;6.36;73.04
61205;BME280;47068;55.780;37.520;2023-03-16T14:29:03;99628.53;;;6.45;72.62
61205;BME280;47068;55.780;37.520;2023-03-16T14:31:38;99618.81;;;6.36;72.28
61205;BME280;47068;55.780;37.520;2023-03-16T14:34:29;99654.41;;;6.51;72.58
61205;BME280;47068;55.780;37.520;2023-03-16T14:37:11;99646.47;;;6.51;71.79
61205;BME280;47068;55.780;37.520;2023-03-16T14:39:38;99614.34;;;6.27;72.16
61205;BME280;47068;55.780;37.520;2023-03-16T14:42:22;99601.53;;;6.22;72.44
61205;BME280;47068;55.780;37.520;2023-03-16T14:44:51;99619.91;;;6.24;71.20
61205;BME280;47068;55.780;37.520;2023-03-16T14:47:22;99654.13;;;6.54;71.37
61205;BME280;47068;55.780;37.520;2023-03-16T14:49:48;99660.53;;;6.42;70.18
61205;BME280;47068;55.780;37.520;2023-03-16T14:52:28;99671.13;;;6.42;71.32
61205;BME280;47068;55.780;37.520;2023-03-16T14:55:11;99676.94;;;6.36;71.05
61205;BME280;47068;55.780;37.520;2023-03-16T14:57:39;99670.53;;;6.29;71.36
61205;BME280;47068;55.780;37.520;2023-03-16T15:00:08;99676.09;;;6.26;71.71
61205;BME280;47068;55.780;37.520;2023-03-16T15:02:37;99680.66;;;6.24;71.63
61205;BME280;47068;55.780;37.520;2023-03-16T15:05:03;99678.31;;;6.21;71.84
61205;BME280;47068;55.780;37.520;2023-03-16T15:07:31;99683.44;;;6.22;72.34
61205;BME280;47068;55.780;37.520;2023-03-16T15:10:07;99679.16;;;6.21;72.67
61205;BME280;47068;55.780;37.520;2023-03-16T15:12:41;99684.28;;;6.23;72.24
61205;BME280;47068;55.780;37.520;2023-03-16T15:15:17;99688.06;;;6.40;72.55
61205;BME280;47068;55.780;37.520;2023-03-16T15:17:44;99683.06;;;6.65;72.13
61205;BME280;47068;55.780;37.520;2023-03-16T15:20:29;99692.25;;;6.81;70.37
61205;BME280;47068;55.780;37.520;2023-03-16T15:22:59;99639.53;;;6.60;69.79
61205;BME280;47068;55.780;37.520;2023-03-16T15:25:55;99694.72;;;6.92;68.84
61205;BME280;47068;55.780;37.520;2023-03-16T15:28:26;99687.72;;;7.39;70.97
61205;BME280;47068;55.780;37.520;2023-03-16T15:30:56;99697.69;;;7.82;68.54
61205;BME280;47068;55.780;37.520;2023-03-16T15:33:23;99688.97;;;8.26;66.74
61205;BME280;47068;55.780;37.520;2023-03-16T15:35:49;99703.00;;;8.64;64.18
61205;BME280;47068;55.780;37.520;2023-03-16T15:38:27;99709.25;;;8.81;63.30
61205;BME280;47068;55.780;37.520;2023-03-16T15:40:54;99713.88;;;8.61;63.19
61205;BME280;47068;55.780;37.520;2023-03-16T15:43:22;99705.97;;;8.34;63.93
61205;BME280;47068;55.780;37.520;2023-03-16T15:45:49;99722.84;;;8.33;64.98
61205;BME280;47068;55.780;37.520;2023-03-16T15:48:17;99709.63;;;8.23;63.57
61205;BME280;47068;55.780;37.520;2023-03-16T15:50:50;99713.91;;;7.79;64.23
61205;BME280;47068;55.780;37.520;2023-03-16T15:56:02;99731.19;;;8.10;64.84
61205;BME280;47068;55.780;37.520;2023-03-16T15:58:30;99720.22;;;8.23;63.77
61205;BME280;47068;55.780;37.520;2023-03-16T16:00:59;99727.41;;;8.13;62.47
61205;BME280;47068;55.780;37.520;2023-03-16T16:03:26;99740.31;;;7.98;63.66
61205;BME280;47068;55.780;37.520;2023-03-16T16:05:52;99735.56;;;7.55;63.07
61205;BME280;47068;55.780;37.520;2023-03-16T16:08:18;99749.31;;;7.12;64.81
61205;BME280;47068;55.780;37.520;2023-03-16T16:10:45;99759.47;;;6.68;65.70
61205;BME280;47068;55.780;37.520;2023-03-16T16:13:22;99736.16;;;6.24;66.87
61205;BME280;47068;55.780;37.520;2023-03-16T16:15:50;99775.78;;;6.24;67.54
61205;BME280;47068;55.780;37.520;2023-03-16T16:18:31;99783.88;;;6.02;68.22
61205;BME280;47068;55.780;37.520;2023-03-16T16:21:00;99750.25;;;5.73;68.71
61205;BME280;47068;55.780;37.520;2023-03-16T16:23:27;99789.84;;;5.94;68.83
61205;BME280;47068;55.780;37.520;2023-03-16T16:25:55;99785.44;;;5.83;68.69
61205;BME280;47068;55.780;37.520;2023-03-16T16:28:24;99801.16;;;5.85;69.65
61205;BME280;47068;55.780;37.520;2023-03-16T16:30:51;99792.41;;;5.84;69.73
61205;BME280;47068;55.780;37.520;2023-03-16T16:33:31;99805.72;;;5.83;69.22
61205;BME280;47068;55.780;37.520;2023-03-16T16:36:02;99806.66;;;5.72;70.01
61205;BME280;47068;55.780;37.520;2023-03-16T16:38:29;99807.63;;;5.71;69.98
61205;BME280;47068;55.780;37.520;2023-03-16T16:40:59;99783.28;;;5.47;70.52
61205;BME280;47068;55.780;37.520;2023-03-16T16:43:45;99816.19;;;5.64;70.82
61205;BME280;47068;55.780;37.520;2023-03-16T16:46:20;99828.75;;;5.71;70.64
61205;BME280;47068;55.780;37.520;2023-03-16T16:48:52;99813.63;;;5.73;70.64
61205;BME280;47068;55.780;37.520;2023-03-16T16:51:21;99822.50;;;5.72;70.53
61205;BME280;47068;55.780;37.520;2023-03-16T16:53:48;99823.19;;;5.74;70.93
61205;BME280;47068;55.780;37.520;2023-03-16T16:56:16;99835.09;;;5.69;70.13
61205;BME280;47068;55.780;37.520;2023-03-16T16:58:43;99840.25;;;5.70;70.49
61205;BME280;47068;55.780;37.520;2023-03-16T17:01:24;99808.72;;;5.48;70.12
61205;BME280;47068;55.780;37.520;2023-03-16T17:03:50;99834.53;;;5.65;69.96
61205;BME280;47068;55.780;37.520;2023-03-16T17:06:18;99835.31;;;5.56;70.29
61205;BME280;47068;55.780;37.520;2023-03-16T17:08:47;99836.97;;;5.57;70.15
61205;BME280;47068;55.780;37.520;2023-03-16T17:11:22;99849.25;;;5.47;70.33
61205;BME280;47068;55.780;37.520;2023-03-16T17:13:48;99828.06;;;5.17;71.02
61205;BME280;47068;55.780;37.520;2023-03-16T17:16:19;99837.66;;;5.18;71.10
61205;BME280;47068;55.780;37.520;2023-03-16T17:18:47;99830.81;;;5.15;71.33
61205;BME280;47068;55.780;37.520;2023-03-16T17:21:19;99830.00;;;5.14;71.16
61205;BME280;47068;55.780;37.520;2023-03-16T17:23:46;99842.75;;;5.30;70.82
61205;BME280;47068;55.780;37.520;2023-03-16T17:26:21;99852.03;;;5.25;71.00
61205;BME280;47068;55.780;37.520;2023-03-16T17:29:08;99857.13;;;5.37;70.79
61205;BME280;47068;55.780;37.520;2023-03-16T17:31:40;99855.69;;;5.33;70.70
61205;BME280;47068;55.780;37.520;2023-03-16T17:34:16;99846.81;;;5.34;70.92
61205;BME280;47068;55.780;37.520;2023-03-16T17:36:43;99832.38;;;5.18;70.99
61205;BME280;47068;55.780;37.520;2023-03-16T17:42:01;99859.16;;;5.34;70.34
61205;BME280;47068;55.780;37.520;2023-03-16T17:44:38;99861.59;;;5.26;70.94
61205;BME280;47068;55.780;37.520;2023-03-16T17:47:12;99815.34;;;4.90;71.50
61205;BME280;47068;55.780;37.520;2023-03-16T17:49:38;99866.28;;;5.22;71.48
61205;BME280;47068;55.780;37.520;2023-03-16T17:52:14;99856.63;;;5.11;71.35
61205;BME280;47068;55.780;37.520;2023-03-16T17:54:44;99827.06;;;4.97;71.20
61205;BME280;47068;55.780;37.520;2023-03-16T17:57:37;99843.06;;;5.16;71.00
61205;BME280;47068;55.780;37.520;2023-03-16T18:00:14;99861.13;;;5.21;71.35
61205;BME280;47068;55.780;37.520;2023-03-16T18:03:12;99878.13;;;5.28;70.83
61205;BME280;47068;55.780;37.520;2023-03-16T18:05:39;99870.16;;;5.18;71.30
61205;BME280;47068;55.780;37.520;2023-03-16T18:10:52;99887.28;;;5.24;71.08
61205;BME280;47068;55.780;37.520;2023-03-16T18:13:27;99890.59;;;5.26;70.81
61205;BME280;47068;55.780;37.520;2023-03-16T18:15:54;99887.50;;;5.21;70.77
61205;BME280;47068;55.780;37.520;2023-03-16T18:18:23;99876.00;;;5.22;71.33
61205;BME280;47068;55.780;37.520;2023-03-16T18:20:50;99870.63;;;5.12;71.04
61205;BME280;47068;55.780;37.520;2023-03-16T18:23:24;99905.63;;;5.14;71.36
61205;BME280;47068;55.780;37.520;2023-03-16T18:25:52;99891.19;;;4.97;71.31
61205;BME280;47068;55.780;37.520;2023-03-16T18:28:20;99907.25;;;4.94;71.82
61205;BME280;47068;55.780;37.520;2023-03-16T18:30:50;99911.56;;;4.95;72.33
61205;BME280;47068;55.780;37.520;2023-03-16T18:35:43;99917.06;;;4.92;72.68
61205;BME280;47068;55.780;37.520;2023-03-16T18:40:48;99912.25;;;5.08;72.05
61205;BME280;47068;55.780;37.520;2023-03-16T18:43:14;99891.19;;;4.97;71.91
61205;BME280;47068;55.780;37.520;2023-03-16T18:45:42;99890.69;;;4.92;72.19
61205;BME280;47068;55.780;37.520;2023-03-16T18:48:17;99925.94;;;5.02;71.95
61205;BME280;47068;55.780;37.520;2023-03-16T18:50:44;99915.97;;;5.06;72.24
61205;BME280;47068;55.780;37.520;2023-03-16T18:53:14;99867.75;;;4.83;71.82
61205;BME280;47068;55.780;37.520;2023-03-16T18:55:40;99869.19;;;4.76;71.41
61205;BME280;47068;55.780;37.520;2023-03-16T18:58:17;99921.16;;;4.96;71.48
61205;BME280;47068;55.780;37.520;2023-03-16T19:00:48;99755.88;;;3.88;71.79
61205;BME280;47068;55.780;37.520;2023-03-16T19:03:24;99914.94;;;4.75;72.39
61205;BME280;47068;55.780;37.520;2023-03-16T19:05:50;99920.47;;;4.83;72.14
61205;BME280;47068;55.780;37.520;2023-03-16T19:08:17;99932.19;;;4.90;72.34
61205;BME280;47068;55.780;37.520;2023-03-16T19:10:48;99930.50;;;4.89;71.65
61205;BME280;47068;55.780;37.520;2023-03-16T19:13:17;99933.63;;;4.94;71.44
61205;BME280;47068;55.780;37.520;2023-03-16T19:15:45;99910.63;;;4.74;71.41
61205;BME280;47068;55.780;37.520;2023-03-16T19:18:11;99927.88;;;4.78;71.35
61205;BME280;47068;55.780;37.520;2023-03-16T19:20:37;99856.53;;;4.36;71.28
61205;BME280;47068;55.780;37.520;2023-03-16T19:23:07;99957.47;;;4.82;71.18
61205;BME280;47068;55.780;37.520;2023-03-16T19:25:39;99934.38;;;4.63;71.69
61205;BME280;47068;55.780;37.520;2023-03-16T19:28:10;99940.09;;;4.57;71.30
61205;BME280;47068;55.780;37.520;2023-03-16T19:30:37;99925.03;;;4.48;71.23
61205;BME280;47068;55.780;37.520;2023-03-16T19:33:15;99971.72;;;4.79;71.36
61205;BME280;47068;55.780;37.520;2023-03-16T19:35:43;99966.31;;;4.92;71.30
61205;BME280;47068;55.780;37.520;2023-03-16T19:38:09;99965.47;;;4.91;70.90
61205;BME280;47068;55.780;37.520;2023-03-16T19:40:34;99973.66;;;4.88;71.00
61205;BME280;47068;55.780;37.520;2023-03-16T19:43:00;99971.75;;;4.90;71.14
61205;BME280;47068;55.780;37.520;2023-03-16T19:45:30;99969.19;;;4.78;71.15
61205;BME280;47068;55.780;37.520;2023-03-16T19:47:58;99972.81;;;4.77;71.01